createdAt,value
2022-10-22T00:01:14.247Z,100436.58
2022-10-22T00:03:42.771Z,100432.41
2022-10-22T00:06:11.444Z,100433.45
2022-10-22T00:08:40.121Z,100426.52
2022-10-22T00:11:14.751Z,100428.06
2022-10-22T00:13:43.830Z,100430.33
2022-10-22T00:16:12.651Z,100431.02
2022-10-22T00:18:41.544Z,100432.23
2022-10-22T00:21:10.248Z,100428.59
2022-10-22T00:23:43.372Z,100423.55
2022-10-22T00:26:12.731Z,100421.63
2022-10-22T00:28:41.465Z,100421.98
2022-10-22T00:31:09.979Z,100422.16
2022-10-22T00:33:38.267Z,100418.52
2022-10-22T00:36:06.630Z,100417.66
2022-10-22T00:38:36.621Z,100417.64
2022-10-22T00:41:05.106Z,100417.64
2022-10-22T00:43:33.652Z,100408.96
2022-10-22T00:46:02.173Z,100410.52
2022-10-22T00:48:37.383Z,100404.96
2022-10-22T00:51:09.430Z,100411.19
2022-10-22T00:53:42.703Z,100406.48
2022-10-22T00:56:12.549Z,100407.48
2022-10-22T00:58:45.826Z,100408.29
2022-10-22T01:01:25.868Z,100408.54
2022-10-22T01:03:55.156Z,100410.20
2022-10-22T01:06:31.327Z,100408.79
2022-10-22T01:09:34.737Z,100412.77
2022-10-22T01:12:12.577Z,100405.62
2022-10-22T01:15:00.343Z,100397.97
2022-10-22T01:17:31.190Z,100401.42
2022-10-22T01:20:08.237Z,100401.41
2022-10-22T01:23:04.942Z,100398.98
2022-10-22T01:25:39.244Z,100395.30
2022-10-22T01:28:38.395Z,100389.39
2022-10-22T01:31:09.237Z,100380.70
2022-10-22T01:33:38.752Z,100379.84
2022-10-22T01:36:07.995Z,100376.86
2022-10-22T01:38:37.241Z,100376.15
2022-10-22T01:41:05.939Z,100371.95
2022-10-22T01:43:34.263Z,100370.70
2022-10-22T01:46:05.663Z,100370.70
2022-10-22T01:48:50.428Z,100367.04
2022-10-22T01:51:40.115Z,100364.96
2022-10-22T01:54:15.243Z,100360.29
2022-10-22T01:57:01.862Z,100360.58
2022-10-22T01:59:30.032Z,100360.69
2022-10-22T02:02:01.017Z,100361.84
2022-10-22T02:04:44.092Z,100364.58
2022-10-22T02:07:16.762Z,100366.66
2022-10-22T02:09:47.384Z,100365.98
2022-10-22T02:12:16.242Z,100365.11
2022-10-22T02:14:46.494Z,100361.98
2022-10-22T02:17:19.960Z,100360.77
2022-10-22T02:19:51.295Z,100359.73
2022-10-22T02:22:20.227Z,100353.48
2022-10-22T02:24:50.423Z,100348.98
2022-10-22T02:27:27.221Z,100350.34
2022-10-22T02:32:46.550Z,100346.70
2022-10-22T02:35:18.504Z,100340.48
2022-10-22T02:37:47.937Z,100338.76
2022-10-22T02:40:16.832Z,100338.42
2022-10-22T02:42:48.071Z,100332.36
2022-10-22T02:45:17.481Z,100331.83
2022-10-22T02:47:46.457Z,100325.75
2022-10-22T02:50:15.008Z,100325.90
2022-10-22T02:52:43.329Z,100327.10
2022-10-22T02:55:11.711Z,100325.54
2022-10-22T02:57:40.191Z,100325.17
2022-10-22T03:00:10.385Z,100320.64
2022-10-22T03:02:39.372Z,100316.11
2022-10-22T03:05:08.567Z,100312.80
2022-10-22T03:07:37.523Z,100310.02
2022-10-22T03:10:06.712Z,100306.02
2022-10-22T03:12:34.938Z,100301.17
2022-10-22T03:15:03.119Z,100292.88
2022-10-22T03:17:31.424Z,100291.15
2022-10-22T03:19:59.702Z,100292.89
2022-10-22T03:22:34.246Z,100290.98
2022-10-22T03:25:08.941Z,100290.27
2022-10-22T03:27:38.916Z,100292.02
2022-10-22T03:30:08.549Z,100294.10
2022-10-22T03:32:36.789Z,100288.39
2022-10-22T03:35:06.533Z,100291.86
2022-10-22T03:37:35.788Z,100286.00
2022-10-22T03:40:07.202Z,100281.36
2022-10-22T03:42:35.876Z,100274.81
2022-10-22T03:45:04.227Z,100273.63
2022-10-22T03:47:32.536Z,100261.02
2022-10-22T03:50:00.872Z,100262.23
2022-10-22T03:52:29.227Z,100266.39
2022-10-22T03:54:57.492Z,100262.93
2022-10-22T03:57:26.500Z,100261.56
2022-10-22T03:59:54.705Z,100255.86
2022-10-22T04:02:23.058Z,100257.06
2022-10-22T04:04:51.422Z,100257.94
2022-10-22T04:07:19.899Z,100251.55
2022-10-22T04:09:48.169Z,100250.36
2022-10-22T04:12:16.449Z,100243.95
2022-10-22T04:14:44.683Z,100244.83
2022-10-22T04:17:13.023Z,100244.30
2022-10-22T04:19:41.244Z,100245.17
2022-10-22T04:22:09.471Z,100242.60
2022-10-22T04:24:38.345Z,100237.95
2022-10-22T04:27:06.778Z,100236.57
2022-10-22T04:29:35.007Z,100232.95
2022-10-22T04:32:03.122Z,100233.47
2022-10-22T04:34:31.578Z,100230.70
2022-10-22T04:37:00.454Z,100228.98
2022-10-22T04:39:28.982Z,100228.80
2022-10-22T04:41:57.345Z,100229.70
2022-10-22T04:44:25.703Z,100225.55
2022-10-22T04:46:54.213Z,100224.34
2022-10-22T04:49:22.445Z,100223.48
2022-10-22T04:51:50.741Z,100225.04
2022-10-22T04:54:19.024Z,100224.52
2022-10-22T04:56:47.336Z,100224.00
2022-10-22T04:59:15.644Z,100220.90
2022-10-22T05:01:45.723Z,100220.23
2022-10-22T05:04:16.636Z,100219.55
2022-10-22T05:06:45.631Z,100220.94
2022-10-22T05:09:19.926Z,100217.48
2022-10-22T05:11:51.208Z,100219.90
2022-10-22T05:14:24.616Z,100218.02
2022-10-22T05:16:53.549Z,100218.36
2022-10-22T05:19:26.709Z,100220.45
2022-10-22T05:21:57.335Z,100220.45
2022-10-22T05:24:26.340Z,100219.42
2022-10-22T05:26:56.359Z,100219.25
2022-10-22T05:29:25.582Z,100217.86
2022-10-22T05:31:54.410Z,100214.23
2022-10-22T05:34:22.854Z,100215.28
2022-10-22T05:36:52.218Z,100213.94
2022-10-22T05:39:20.721Z,100214.64
2022-10-22T05:41:48.985Z,100211.86
2022-10-22T05:44:17.261Z,100213.42
2022-10-22T05:46:45.554Z,100211.69
2022-10-22T05:49:16.299Z,100216.55
2022-10-22T05:51:45.054Z,100212.92
2022-10-22T05:54:19.444Z,100210.85
2022-10-22T05:56:48.352Z,100215.01
2022-10-22T05:59:17.321Z,100218.65
2022-10-22T06:01:45.780Z,100219.00
2022-10-22T06:04:14.970Z,100221.09
2022-10-22T06:06:48.897Z,100223.00
2022-10-22T06:09:23.198Z,100223.52
2022-10-22T06:11:52.590Z,100222.12
2022-10-22T06:14:21.994Z,100215.90
2022-10-22T06:16:51.850Z,100216.08
2022-10-22T06:19:22.768Z,100209.66
2022-10-22T06:21:51.168Z,100216.59
2022-10-22T06:24:19.347Z,100220.90
2022-10-22T06:26:51.903Z,100222.65
2022-10-22T06:29:20.661Z,100223.16
2022-10-22T06:31:49.321Z,100223.34
2022-10-22T06:34:19.906Z,100224.03
2022-10-22T06:36:48.925Z,100221.77
2022-10-22T06:39:18.699Z,100219.00
2022-10-22T06:41:47.903Z,100216.21
2022-10-22T06:44:20.736Z,100218.48
2022-10-22T06:46:55.230Z,100215.89
2022-10-22T06:49:23.510Z,100215.02
2022-10-22T06:51:54.033Z,100215.55
2022-10-22T06:54:23.628Z,100216.41
2022-10-22T06:56:51.877Z,100219.87
2022-10-22T07:03:43.986Z,100221.61
2022-10-22T07:06:15.131Z,100226.12
2022-10-22T07:08:44.196Z,100225.39
2022-10-22T07:11:18.215Z,100228.69
2022-10-22T07:13:47.441Z,100229.90
2022-10-22T07:16:16.516Z,100235.27
2022-10-22T07:18:45.546Z,100231.80
2022-10-22T07:21:16.150Z,100229.21
2022-10-22T07:23:44.593Z,100230.60
2022-10-22T07:26:18.272Z,100239.25
2022-10-22T07:28:46.537Z,100239.77
2022-10-22T07:31:17.007Z,100237.33
2022-10-22T07:33:46.006Z,100234.20
2022-10-22T07:36:18.679Z,100235.40
2022-10-22T07:38:49.811Z,100236.61
2022-10-22T07:41:18.809Z,100233.66
2022-10-22T07:43:47.241Z,100234.69
2022-10-22T07:46:15.742Z,100236.77
2022-10-22T07:48:44.092Z,100238.16
2022-10-22T07:51:12.627Z,100240.90
2022-10-22T07:53:41.538Z,100245.73
2022-10-22T07:56:09.872Z,100244.86
2022-10-22T07:58:38.534Z,100245.19
2022-10-22T08:01:07.668Z,100244.84
2022-10-22T08:03:36.875Z,100247.08
2022-10-22T08:06:05.711Z,100243.94
2022-10-22T08:08:34.471Z,100245.48
2022-10-22T08:11:03.692Z,100240.42
2022-10-22T08:13:32.121Z,100244.04
2022-10-22T08:16:02.428Z,100247.65
2022-10-22T08:18:31.363Z,100247.62
2022-10-22T08:21:00.354Z,100250.17
2022-10-22T08:23:29.949Z,100246.52
2022-10-22T08:25:59.155Z,100245.13
2022-10-22T08:28:30.039Z,100243.20
2022-10-22T08:30:58.518Z,100244.73
2022-10-22T08:33:27.189Z,100242.14
2022-10-22T08:35:55.740Z,100242.14
2022-10-22T08:38:24.155Z,100243.54
2022-10-22T08:41:23.573Z,100249.42
2022-10-22T08:44:24.315Z,100247.52
2022-10-22T08:47:04.125Z,100250.46
2022-10-22T08:49:41.299Z,100251.14
2022-10-22T08:52:17.363Z,100251.31
2022-10-22T08:54:45.692Z,100249.90
2022-10-22T08:57:32.658Z,100255.44
2022-10-22T09:00:12.564Z,100254.08
2022-10-22T09:03:02.108Z,100258.94
2022-10-22T09:06:04.381Z,100255.14
2022-10-22T09:08:32.950Z,100259.64
2022-10-22T09:11:36.272Z,100260.67
2022-10-22T09:14:05.780Z,100258.61
2022-10-22T09:16:44.333Z,100259.67
2022-10-22T09:19:42.026Z,100258.67
2022-10-22T09:22:31.655Z,100259.19
2022-10-22T09:25:24.838Z,100258.00
2022-10-22T09:27:55.438Z,100256.24
2022-10-22T09:30:29.848Z,100257.80
2022-10-22T09:33:09.351Z,100258.17
2022-10-22T09:36:00.445Z,100259.93
2022-10-22T09:38:32.575Z,100257.53
2022-10-22T09:41:06.271Z,100257.72
2022-10-22T09:43:36.065Z,100260.52
2022-10-22T09:46:08.211Z,100260.17
2022-10-22T09:48:41.086Z,100262.77
2022-10-22T09:51:17.596Z,100260.53
2022-10-22T09:53:48.856Z,100263.67
2022-10-22T09:56:27.480Z,100261.08
2022-10-22T09:58:59.033Z,100263.34
2022-10-22T10:01:34.530Z,100267.34
2022-10-22T10:04:15.236Z,100269.56
2022-10-22T10:06:46.236Z,100270.41
2022-10-22T10:09:24.408Z,100266.08
2022-10-22T10:12:13.197Z,100264.85
2022-10-22T10:15:09.039Z,100265.73
2022-10-22T10:17:46.597Z,100263.99
2022-10-22T10:20:22.555Z,100264.86
2022-10-22T10:22:56.654Z,100264.84
2022-10-22T10:25:34.009Z,100262.07
2022-10-22T10:28:16.511Z,100264.84
2022-10-22T10:30:59.345Z,100266.91
2022-10-22T10:33:48.950Z,100265.35
2022-10-22T10:36:33.475Z,100266.56
2022-10-22T10:39:20.472Z,100263.96
2022-10-22T10:41:56.888Z,100262.92
2022-10-22T10:44:51.612Z,100265.16
2022-10-22T10:47:51.029Z,100267.77
2022-10-22T10:50:28.753Z,100272.08
2022-10-22T10:53:11.891Z,100273.83
2022-10-22T10:56:23.248Z,100273.47
2022-10-22T10:59:17.472Z,100268.65
2022-10-22T11:02:09.925Z,100269.86
2022-10-22T11:04:38.293Z,100269.17
2022-10-22T11:07:16.890Z,100267.45
2022-10-22T11:10:03.776Z,100270.74
2022-10-22T11:12:43.152Z,100270.58
2022-10-22T11:15:27.683Z,100272.30
2022-10-22T11:18:02.549Z,100275.80
2022-10-22T11:20:37.444Z,100279.09
2022-10-22T11:23:20.138Z,100274.06
2022-10-22T11:25:51.446Z,100275.81
2022-10-22T11:28:35.490Z,100270.61
2022-10-22T11:31:10.284Z,100273.17
2022-10-22T11:33:57.308Z,100267.96
2022-10-22T11:36:35.365Z,100268.65
2022-10-22T11:39:05.559Z,100271.25
2022-10-22T11:41:36.249Z,100270.55
2022-10-22T11:44:26.709Z,100275.73
2022-10-22T11:46:57.133Z,100275.19
2022-10-22T11:49:43.992Z,100274.65
2022-10-22T11:52:34.491Z,100274.13
2022-10-22T11:55:04.795Z,100272.91
2022-10-22T11:57:40.881Z,100276.18
2022-10-22T12:00:37.014Z,100279.81
2022-10-22T12:03:38.856Z,100283.95
2022-10-22T12:06:13.525Z,100278.91
2022-10-22T12:08:46.349Z,100280.11
2022-10-22T12:11:20.749Z,100283.02
2022-10-22T12:14:01.108Z,100286.48
2022-10-22T12:16:59.291Z,100293.06
2022-10-22T12:19:32.069Z,100295.48
2022-10-22T12:22:27.374Z,100301.21
2022-10-22T12:25:02.963Z,100302.78
2022-10-22T12:27:41.130Z,100302.11
2022-10-22T12:30:28.787Z,100305.92
2022-10-22T12:33:01.170Z,100307.52
2022-10-22T12:35:32.682Z,100309.95
2022-10-22T12:38:09.834Z,100307.91
2022-10-22T12:40:38.458Z,100309.30
2022-10-22T12:43:17.238Z,100308.80
2022-10-22T12:45:48.122Z,100305.02
2022-10-22T12:48:24.455Z,100308.84
2022-10-22T12:50:55.655Z,100314.59
2022-10-22T12:53:57.604Z,100318.94
2022-10-22T12:56:30.029Z,100330.02
2022-10-22T12:59:01.791Z,100340.06
2022-10-22T13:01:37.658Z,100342.08
2022-10-22T13:04:34.942Z,100345.17
2022-10-22T13:07:07.467Z,100340.45
2022-10-22T13:09:41.262Z,100344.58
2022-10-22T13:12:17.603Z,100346.27
2022-10-22T13:14:47.983Z,100349.35
2022-10-22T13:17:18.286Z,100351.90
2022-10-22T13:19:56.108Z,100349.80
2022-10-22T13:22:36.500Z,100348.70
2022-10-22T13:25:18.264Z,100348.80
2022-10-22T13:27:49.264Z,100353.61
2022-10-22T13:30:37.832Z,100354.28
2022-10-22T13:33:27.515Z,100357.89
2022-10-22T13:35:57.954Z,100356.64
2022-10-22T13:38:28.286Z,100360.77
2022-10-22T13:40:57.365Z,100360.74
2022-10-22T13:43:26.835Z,100359.68
2022-10-22T13:46:00.289Z,100359.67
2022-10-22T13:48:30.978Z,100360.18
2022-10-22T13:50:59.533Z,100361.35
2022-10-22T13:53:30.528Z,100363.59
2022-10-22T13:55:58.903Z,100369.11
2022-10-22T13:58:27.290Z,100368.78
2022-10-22T14:01:03.394Z,100367.94
2022-10-22T14:03:35.508Z,100371.57
2022-10-22T14:06:03.780Z,100374.02
2022-10-22T14:08:32.246Z,100381.94
2022-10-22T14:11:00.791Z,100382.67
2022-10-22T14:13:29.055Z,100384.26
2022-10-22T14:15:57.500Z,100383.59
2022-10-22T14:18:30.018Z,100390.54
2022-10-22T14:21:01.263Z,100393.84
2022-10-22T14:23:31.926Z,100397.67
2022-10-22T14:26:01.922Z,100398.74
2022-10-22T14:28:31.591Z,100400.15
2022-10-22T14:31:12.494Z,100399.83
2022-10-22T14:33:41.481Z,100404.34
2022-10-22T14:36:13.999Z,100407.85
2022-10-22T14:38:47.369Z,100408.40
2022-10-22T14:41:23.658Z,100413.25
2022-10-22T14:43:52.778Z,100414.67
2022-10-22T14:46:20.845Z,100416.77
2022-10-22T14:48:49.588Z,100417.66
2022-10-22T14:51:23.122Z,100419.91
2022-10-22T14:53:52.907Z,100422.87
2022-10-22T14:56:24.811Z,100427.55
2022-10-22T14:58:54.521Z,100428.78
2022-10-22T15:01:23.521Z,100431.20
2022-10-22T15:03:51.904Z,100437.25
2022-10-22T15:06:20.456Z,100440.05
2022-10-22T15:08:49.189Z,100444.39
2022-10-22T15:11:17.998Z,100444.73
2022-10-22T15:13:46.770Z,100447.84
2022-10-22T15:16:17.357Z,100450.77
2022-10-22T15:18:45.976Z,100452.84
2022-10-22T15:21:20.271Z,100452.48
2022-10-22T15:23:49.214Z,100457.67
2022-10-22T15:26:18.697Z,100458.01
2022-10-22T15:28:47.267Z,100459.21
2022-10-22T15:31:16.537Z,100460.95
2022-10-22T15:33:45.506Z,100461.96
2022-10-22T15:36:16.828Z,100463.89
2022-10-22T15:38:45.565Z,100464.09
2022-10-22T15:41:14.548Z,100468.08
2022-10-22T15:43:43.198Z,100467.05
2022-10-22T15:46:17.964Z,100466.73
2022-10-22T15:48:46.799Z,100465.02
2022-10-22T15:51:17.638Z,100467.95
2022-10-22T15:53:52.103Z,100471.42
2022-10-22T15:56:21.156Z,100475.07
2022-10-22T15:58:53.521Z,100477.31
2022-10-22T16:01:22.033Z,100483.21
2022-10-22T16:03:54.706Z,100488.41
2022-10-22T16:06:23.237Z,100486.67
2022-10-22T16:08:51.754Z,100487.04
2022-10-22T16:11:20.164Z,100487.77
2022-10-22T16:13:48.623Z,100489.16
2022-10-22T16:16:17.048Z,100490.75
2022-10-22T16:18:45.449Z,100488.16
2022-10-22T16:21:18.385Z,100487.61
2022-10-22T16:23:47.128Z,100489.34
2022-10-22T16:26:16.447Z,100496.81
2022-10-22T16:28:46.159Z,100503.39
2022-10-22T16:31:17.678Z,100507.56
2022-10-22T16:33:49.186Z,100512.95
2022-10-22T16:36:21.115Z,100514.88
2022-10-22T16:38:50.257Z,100516.58
2022-10-22T16:41:35.957Z,100520.90
2022-10-22T16:44:08.734Z,100523.67
2022-10-22T16:46:40.387Z,100522.48
2022-10-22T16:49:09.460Z,100524.21
2022-10-22T16:51:38.274Z,100525.59
2022-10-22T16:54:09.711Z,100528.03
2022-10-22T16:56:40.468Z,100528.35
2022-10-22T16:59:09.004Z,100530.42
2022-10-22T17:01:40.945Z,100530.45
2022-10-22T17:04:09.977Z,100530.65
2022-10-22T17:06:38.308Z,100535.52
2022-10-22T17:09:06.956Z,100535.85
2022-10-22T17:11:38.066Z,100536.36
2022-10-22T17:14:08.551Z,100537.23
2022-10-22T17:16:36.913Z,100534.45
2022-10-22T17:19:11.339Z,100536.03
2022-10-22T17:21:40.394Z,100542.42
2022-10-22T17:24:08.721Z,100548.65
2022-10-22T17:26:38.302Z,100550.40
2022-10-22T17:29:06.603Z,100552.64
2022-10-22T17:31:38.265Z,100555.73
2022-10-22T17:34:08.583Z,100556.23
2022-10-22T17:36:38.242Z,100556.89
2022-10-22T17:39:08.846Z,100555.29
2022-10-22T17:41:38.754Z,100558.91
2022-10-22T17:44:10.016Z,100564.09
2022-10-22T17:46:39.657Z,100565.51
2022-10-22T17:49:17.258Z,100563.10
2022-10-22T17:51:46.012Z,100566.59
2022-10-22T17:54:15.167Z,100566.78
2022-10-22T17:56:43.592Z,100570.09
2022-10-22T17:59:15.111Z,100564.91
2022-10-22T18:01:46.521Z,100565.06
2022-10-22T18:04:21.327Z,100567.52
2022-10-22T18:06:50.009Z,100567.86
2022-10-22T18:09:20.293Z,100569.26
2022-10-22T18:11:50.699Z,100574.70
2022-10-22T18:14:20.895Z,100573.20
2022-10-22T18:16:50.173Z,100571.34
2022-10-22T18:19:23.389Z,100574.52
2022-10-22T18:21:51.914Z,100572.30
2022-10-22T18:24:20.549Z,100575.97
2022-10-22T18:26:49.014Z,100575.13
2022-10-22T18:29:20.712Z,100579.48
2022-10-22T18:31:49.634Z,100582.98
2022-10-22T18:34:20.431Z,100578.51
2022-10-22T18:36:51.679Z,100580.27
2022-10-22T18:39:20.547Z,100583.42
2022-10-22T18:41:48.877Z,100578.59
2022-10-22T18:44:17.994Z,100579.30
2022-10-22T18:46:46.236Z,100581.22
2022-10-22T18:49:19.327Z,100585.23
2022-10-22T18:51:53.784Z,100588.17
2022-10-22T18:54:25.006Z,100587.35
2022-10-22T18:56:58.065Z,100584.77
2022-10-22T18:59:28.822Z,100584.29
2022-10-22T19:02:01.263Z,100585.48
2022-10-22T19:04:37.454Z,100582.35
2022-10-22T19:07:05.957Z,100577.89
2022-10-22T19:09:34.418Z,100577.94
2022-10-22T19:12:02.964Z,100578.48
2022-10-22T19:14:31.547Z,100579.72
2022-10-22T19:17:00.230Z,100579.05
2022-10-22T19:19:29.240Z,100582.68
2022-10-22T19:22:00.666Z,100578.70
2022-10-22T19:24:30.208Z,100583.21
2022-10-22T19:26:58.808Z,100582.67
2022-10-22T19:29:27.345Z,100582.30
2022-10-22T19:31:55.907Z,100583.86
2022-10-22T19:34:24.778Z,100586.97
2022-10-22T19:36:53.198Z,100588.54
2022-10-22T19:39:21.553Z,100592.70
2022-10-22T19:41:50.161Z,100589.25
2022-10-22T19:44:18.497Z,100588.23
2022-10-22T19:46:46.748Z,100589.98
2022-10-22T19:49:18.852Z,100590.84
2022-10-22T19:51:50.263Z,100587.73
2022-10-22T19:54:21.689Z,100589.80
2022-10-22T19:56:50.271Z,100585.29
2022-10-22T19:59:21.559Z,100577.66
2022-10-22T20:01:50.284Z,100575.74
2022-10-22T20:04:19.222Z,100573.52
2022-10-22T20:06:47.634Z,100574.40
2022-10-22T20:09:16.406Z,100571.80
2022-10-22T20:11:45.258Z,100573.06
2022-10-22T20:14:14.584Z,100574.32
2022-10-22T20:16:43.410Z,100573.66
2022-10-22T20:19:16.795Z,100573.48
2022-10-22T20:21:46.355Z,100570.89
2022-10-22T20:24:14.706Z,100569.33
2022-10-22T20:26:42.948Z,100565.67
2022-10-22T20:29:12.687Z,100562.20
2022-10-22T20:31:40.939Z,100563.92
2022-10-22T20:34:10.649Z,100566.02
2022-10-22T20:36:39.380Z,100567.02
2022-10-22T20:39:10.022Z,100564.73
2022-10-22T20:41:40.220Z,100562.98
2022-10-22T20:44:12.914Z,100564.16
2022-10-22T20:46:41.452Z,100567.59
2022-10-22T20:49:15.748Z,100563.77
2022-10-22T20:51:44.474Z,100563.08
2022-10-22T20:54:13.470Z,100561.54
2022-10-22T20:56:43.188Z,100560.16
2022-10-22T20:59:13.870Z,100559.29
2022-10-22T21:01:53.278Z,100561.89
2022-10-22T21:04:23.124Z,100560.19
2022-10-22T21:06:53.037Z,100564.38
2022-10-22T21:09:21.305Z,100566.09
2022-10-22T21:11:49.548Z,100567.49
2022-10-22T21:14:21.131Z,100570.98
2022-10-22T21:16:51.259Z,100573.25
2022-10-22T21:19:21.330Z,100577.59
2022-10-22T21:21:50.465Z,100579.17
2022-10-22T21:24:18.999Z,100583.16
2022-10-22T21:26:47.192Z,100582.13
2022-10-22T21:29:15.485Z,100582.81
2022-10-22T21:31:44.288Z,100586.63
2022-10-22T21:34:15.982Z,100589.90
2022-10-22T21:39:14.200Z,100600.80
2022-10-22T21:41:42.409Z,100601.64
2022-10-22T21:44:11.090Z,100596.40
2022-10-22T21:46:41.512Z,100598.09
2022-10-22T21:49:09.872Z,100599.81
2022-10-22T21:51:39.378Z,100604.11
2022-10-22T21:54:08.066Z,100603.60
2022-10-22T21:56:37.801Z,100600.83
2022-10-22T21:59:07.613Z,100600.65
2022-10-22T22:01:36.741Z,100601.38
2022-10-22T22:04:05.294Z,100604.36
2022-10-22T22:06:34.531Z,100605.94
2022-10-22T22:09:04.857Z,100608.09
2022-10-22T22:11:33.558Z,100602.79
2022-10-22T22:14:02.021Z,100606.15
2022-10-22T22:16:33.239Z,100610.05
2022-10-22T22:19:05.425Z,100610.98
2022-10-22T22:21:34.696Z,100615.73
2022-10-22T22:24:03.106Z,100618.54
2022-10-22T22:26:31.532Z,100625.67
2022-10-22T22:29:01.233Z,100632.66
2022-10-22T22:31:32.167Z,100630.77
2022-10-22T22:34:02.148Z,100633.05
2022-10-22T22:36:44.383Z,100629.78
2022-10-22T22:39:17.093Z,100628.77
2022-10-22T22:41:45.611Z,100635.22
2022-10-22T22:44:14.905Z,100632.63
2022-10-22T22:46:44.303Z,100633.87
2022-10-22T22:49:14.640Z,100634.23
2022-10-22T22:51:44.440Z,100634.76
2022-10-22T22:54:12.885Z,100633.04
2022-10-22T22:56:42.057Z,100635.48
2022-10-22T22:59:12.258Z,100640.17
2022-10-22T23:01:41.514Z,100644.52
2022-10-22T23:04:20.015Z,100643.83
2022-10-22T23:06:48.375Z,100646.29
2022-10-22T23:11:52.580Z,100646.09
2022-10-22T23:14:21.511Z,100649.90
2022-10-22T23:16:52.408Z,100652.14
2022-10-22T23:19:22.874Z,100647.27
2022-10-22T23:21:54.416Z,100647.95
2022-10-22T23:24:26.562Z,100652.61
2022-10-22T23:26:56.812Z,100658.52
2022-10-22T23:29:28.108Z,100663.20
2022-10-22T23:31:57.009Z,100663.88
2022-10-22T23:34:27.608Z,100669.95
2022-10-22T23:36:57.210Z,100671.14
2022-10-22T23:39:28.331Z,100675.30
2022-10-22T23:41:57.848Z,100678.92
2022-10-22T23:44:26.730Z,100682.70
2022-10-22T23:46:56.250Z,100681.98
2022-10-22T23:49:24.847Z,100681.65
2022-10-22T23:51:53.235Z,100681.13
2022-10-22T23:54:21.653Z,100680.46
2022-10-22T23:56:49.971Z,100683.42
2022-10-22T23:59:18.186Z,100681.53
